Tucumcari Municipal Airport
KTCC : rendu visible

Aérodrome :











RETROUVEZ-NOUS SUR...

 
LOGIN :

S'inscrire | Disclaimer

   EN    FR    IT 

 









Légende :    VFR   VFR Marginal   IFR   IFR Intensif   IFR Très Intensif
Visi : 
Plafond : 
>= 8 km
>= 3000ft
5 à 8 km
1000 à 3000 ft
1500m à 5 km
500 à 1000 ft
800 à 1500m
200 à 500 ft
< 800m
< 200 ft
Symboles :   Orages  Brouillard  Fortes neiges  Fortes précipitations  Vent > 20 kt






- Altitude de l'aérodrome : 4065 ft


KTCC - Tucumcari Municipal

DERNIER METAR :
  • 180053Z AUTO 28023G31KT 10SM CLR 10/M01 A2993 RMK AO2 PK WND 28031/0053 SLP128 T01001011

METARs EXPIRÉS :
  • 172353Z AUTO 27013KT 10SM CLR 09/04 A2988 RMK AO2 PK WND 22028/2254 SLP111 T00940039 10117 20067 53014
  • 172253Z AUTO 22021G31KT 10SM CLR 09/04 A2984 RMK AO2 PK WND 22031/2245 SLP096 T00940044

TAF KTCC
Valide du 18 à 00h jusqu'au 19 à 00h UTC


172323Z 1800/1824 24021G31KT P6SM FEW010
FM180200 27018G26KT P6SM SKC
FM180400 27012KT P6SM FEW250
FM180800 VRB05KT P6SM FEW250
FM182100 16008KT P6SM SCT250



MET'MAP, la Météo Aéronautique d'un coup d'oeil ! - Copyright ORBIFLY Décembre 2007 - Disclaimer

ORBIFLY MET'MAP TEAM :

Programmation & Développement : Alexandra Zaïnal
Sur une idée originale de : Baudouin d'Aumeries
Assistance à la programmation : Marc-Olivier Méhu
Soutien technique & logistique : Manuel Goepfert

Contact : metmap@orbifly.com




SOURCES & CREDITS :

   NOAA       Earth
Advisory